createdAt,value
2023-03-05T00:01:51.188Z,4.43
2023-03-05T00:07:10.978Z,5.28
2023-03-05T00:09:44.607Z,4.72
2023-03-05T00:12:41.584Z,4.10
2023-03-05T00:15:13.419Z,3.00
2023-03-05T00:17:46.251Z,4.03
2023-03-05T00:20:16.628Z,3.70
2023-03-05T00:23:00.487Z,3.80
2023-03-05T00:25:34.638Z,3.92
2023-03-05T00:28:11.520Z,4.32
2023-03-05T00:30:40.203Z,4.00
2023-03-05T00:33:13.118Z,3.83
2023-03-05T00:36:03.736Z,4.65
2023-03-05T00:38:37.372Z,4.57
2023-03-05T00:41:09.431Z,4.40
2023-03-05T00:44:07.825Z,4.15
2023-03-05T00:46:46.569Z,4.40
2023-03-05T00:49:15.590Z,4.40
2023-03-05T00:51:46.733Z,3.63
2023-03-05T00:54:18.022Z,4.32
2023-03-05T00:56:50.006Z,5.25
2023-03-05T00:59:18.120Z,4.80
2023-03-05T01:01:46.297Z,4.18
2023-03-05T01:04:19.752Z,4.00
2023-03-05T01:06:49.117Z,3.83
2023-03-05T01:09:16.907Z,4.25
2023-03-05T01:11:46.948Z,4.35
2023-03-05T01:14:21.114Z,4.90
2023-03-05T01:16:56.650Z,5.18
2023-03-05T01:19:26.118Z,5.53
2023-03-05T01:21:55.070Z,5.55
2023-03-05T01:24:28.377Z,5.18
2023-03-05T01:26:58.814Z,5.40
2023-03-05T01:29:28.725Z,5.65
2023-03-05T01:32:05.588Z,6.28
2023-03-05T01:34:45.750Z,5.68
2023-03-05T01:37:17.600Z,5.50
2023-03-05T01:39:45.245Z,5.00
2023-03-05T01:42:13.294Z,4.55
2023-03-05T01:44:41.479Z,4.80
2023-03-05T01:47:08.593Z,4.70
2023-03-05T01:49:42.442Z,5.10
2023-03-05T01:52:18.060Z,5.88
2023-03-05T01:55:01.630Z,6.68
2023-03-05T01:57:43.210Z,3.92
2023-03-05T02:05:33.463Z,3.38
2023-03-05T02:08:08.271Z,6.50
2023-03-05T02:11:02.363Z,4.63
2023-03-05T02:13:35.836Z,4.15
2023-03-05T02:16:06.390Z,4.28
2023-03-05T02:18:36.644Z,4.72
2023-03-05T02:21:11.416Z,4.07
2023-03-05T02:23:43.544Z,3.10
2023-03-05T02:26:11.362Z,4.10
2023-03-05T02:28:53.284Z,4.25
2023-03-05T02:31:24.221Z,3.73
2023-03-05T02:33:54.385Z,4.30
2023-03-05T02:36:23.676Z,4.53
2023-03-05T02:38:54.147Z,4.57
2023-03-05T02:42:12.878Z,6.82
2023-03-05T02:45:59.686Z,4.57
2023-03-05T02:48:43.152Z,4.30
2023-03-05T02:53:58.619Z,4.27
2023-03-05T02:56:40.084Z,4.20
2023-03-05T02:59:13.700Z,4.40
2023-03-05T03:01:52.525Z,4.65
2023-03-05T03:04:40.157Z,4.50
2023-03-05T03:07:13.222Z,4.63
2023-03-05T03:09:43.781Z,4.38
2023-03-05T03:12:12.995Z,5.28
2023-03-05T03:14:42.796Z,5.40
2023-03-05T03:17:13.812Z,5.35
2023-03-05T03:19:41.755Z,5.07
2023-03-05T03:22:12.678Z,8.63
2023-03-05T03:24:40.877Z,18.77
2023-03-05T03:27:08.665Z,6.07
2023-03-05T03:29:36.472Z,6.53
2023-03-05T03:32:04.694Z,6.68
2023-03-05T03:34:35.485Z,7.13
2023-03-05T03:37:02.513Z,19.75
2023-03-05T03:39:30.676Z,6.38
2023-03-05T03:41:57.753Z,6.68
2023-03-05T03:44:26.126Z,5.97
2023-03-05T03:48:06.065Z,5.65
2023-03-05T03:50:44.696Z,5.80
2023-03-05T03:53:14.570Z,5.70
2023-03-05T03:55:47.852Z,6.75
2023-03-05T03:58:20.900Z,6.10
2023-03-05T04:00:51.576Z,6.00
2023-03-05T04:03:21.210Z,6.40
2023-03-05T04:05:54.308Z,7.70
2023-03-05T04:08:26.152Z,8.00
2023-03-05T04:11:00.806Z,7.17
2023-03-05T04:13:31.597Z,6.55
2023-03-05T04:15:58.599Z,6.32
2023-03-05T04:18:25.718Z,6.80
2023-03-05T04:20:52.817Z,6.95
2023-03-05T04:23:22.403Z,6.45
2023-03-05T04:25:49.618Z,6.65
2023-03-05T04:28:17.903Z,7.18
2023-03-05T04:30:45.112Z,6.90
2023-03-05T04:33:13.175Z,6.65
2023-03-05T04:35:43.413Z,6.95
2023-03-05T04:38:10.685Z,6.93
2023-03-05T04:40:42.853Z,8.18
2023-03-05T04:43:10.825Z,9.68
2023-03-05T04:45:43.378Z,8.18
2023-03-05T04:48:11.911Z,8.30
2023-03-05T04:50:40.114Z,10.05
2023-03-05T04:53:07.203Z,9.43
2023-03-05T04:55:34.812Z,9.40
2023-03-05T04:58:03.981Z,10.65
2023-03-05T05:00:30.907Z,10.23
2023-03-05T05:02:58.686Z,9.77
2023-03-05T05:05:27.641Z,11.15
2023-03-05T05:07:57.128Z,10.27
2023-03-05T05:10:25.780Z,9.98
2023-03-05T05:12:53.967Z,10.82
2023-03-05T05:15:21.435Z,10.68
2023-03-05T05:17:48.832Z,11.10
2023-03-05T05:20:18.226Z,10.57
2023-03-05T05:22:45.530Z,9.63
2023-03-05T05:25:12.853Z,9.90
2023-03-05T05:27:41.514Z,11.45
2023-03-05T05:30:11.475Z,10.88
2023-03-05T05:32:38.699Z,10.90
2023-03-05T05:35:07.671Z,9.93
2023-03-05T05:37:44.106Z,10.93
2023-03-05T05:40:11.963Z,12.15
2023-03-05T05:42:44.560Z,11.95
2023-03-05T05:52:08.835Z,12.23
2023-03-05T05:54:37.111Z,12.65
2023-03-05T05:57:04.220Z,13.85
2023-03-05T05:59:32.953Z,12.90
2023-03-05T06:02:00.274Z,13.98
2023-03-05T06:04:28.453Z,14.10
2023-03-05T06:06:58.232Z,13.88
2023-03-05T06:09:25.132Z,14.35
2023-03-05T06:11:52.383Z,16.27
2023-03-05T06:14:19.313Z,15.00
2023-03-05T06:16:46.403Z,16.17
2023-03-05T06:19:15.119Z,15.15
2023-03-05T06:21:45.558Z,14.48
2023-03-05T06:24:14.955Z,14.85
2023-03-05T06:27:09.161Z,14.80
2023-03-05T06:29:39.168Z,13.85
2023-03-05T06:32:07.340Z,14.18
2023-03-05T06:34:34.328Z,15.15
2023-03-05T06:37:03.266Z,14.88
2023-03-05T06:39:31.671Z,15.02
2023-03-05T06:41:59.205Z,16.73
2023-03-05T06:44:29.272Z,16.08
2023-03-05T06:46:58.360Z,17.65
2023-03-05T06:58:00.358Z,14.70
2023-03-05T07:01:25.915Z,14.60
2023-03-05T07:04:01.951Z,13.02
2023-03-05T07:06:30.620Z,14.05
2023-03-05T07:09:01.401Z,12.95
2023-03-05T07:11:29.215Z,13.02
2023-03-05T07:13:56.318Z,12.35
2023-03-05T07:16:26.327Z,12.80
2023-03-05T07:18:54.775Z,12.63
2023-03-05T07:21:28.084Z,13.48
2023-03-05T07:23:57.120Z,12.20
2023-03-05T07:26:24.696Z,12.10
2023-03-05T07:28:51.843Z,10.95
2023-03-05T07:31:21.398Z,11.13
2023-03-05T07:33:49.877Z,10.13
2023-03-05T07:36:19.271Z,10.77
2023-03-05T07:38:47.381Z,11.40
2023-03-05T07:41:19.866Z,12.10
2023-03-05T07:43:53.401Z,11.18
2023-03-05T07:46:27.195Z,10.25
2023-03-05T07:48:58.452Z,9.43
2023-03-05T07:51:37.685Z,10.30
2023-03-05T07:54:14.837Z,10.35
2023-03-05T07:56:42.865Z,9.65
2023-03-05T07:59:12.896Z,9.63
2023-03-05T08:01:43.267Z,8.88
2023-03-05T08:04:19.675Z,9.35
2023-03-05T08:06:47.083Z,10.13
2023-03-05T08:09:15.118Z,9.38
2023-03-05T08:11:42.206Z,9.48
2023-03-05T08:14:09.513Z,9.18
2023-03-05T08:16:40.130Z,8.23
2023-03-05T08:19:07.471Z,8.90
2023-03-05T08:21:38.062Z,8.80
2023-03-05T08:24:07.449Z,9.00
2023-03-05T08:26:38.486Z,9.25
2023-03-05T08:29:06.384Z,8.32
2023-03-05T08:31:34.329Z,8.68
2023-03-05T08:34:02.984Z,9.65
2023-03-05T08:36:31.430Z,8.68
2023-03-05T08:38:59.911Z,8.63
2023-03-05T08:41:27.870Z,8.65
2023-03-05T08:43:57.617Z,9.05
2023-03-05T08:46:24.736Z,9.40
2023-03-05T08:48:51.797Z,8.80
2023-03-05T08:51:22.372Z,9.27
2023-03-05T08:53:50.612Z,9.17
2023-03-05T08:56:19.108Z,9.40
2023-03-05T08:58:47.252Z,9.70
2023-03-05T09:01:14.791Z,8.85
2023-03-05T09:03:42.239Z,9.57
2023-03-05T09:06:12.455Z,9.85
2023-03-05T09:08:40.720Z,10.90
2023-03-05T09:11:19.889Z,10.43
2023-03-05T09:13:47.143Z,10.75
2023-03-05T09:17:05.794Z,9.90
2023-03-05T09:19:32.823Z,9.88
2023-03-05T09:21:59.871Z,9.30
2023-03-05T09:24:26.784Z,8.77
2023-03-05T09:26:53.828Z,9.18
2023-03-05T09:29:20.707Z,7.53
2023-03-05T09:31:51.438Z,7.35
2023-03-05T09:34:19.652Z,7.63
2023-03-05T09:36:46.658Z,8.88
2023-03-05T09:39:17.000Z,12.60
2023-03-05T09:42:05.796Z,11.80
2023-03-05T09:44:54.454Z,11.68
2023-03-05T09:47:50.597Z,9.65
2023-03-05T09:50:35.546Z,13.32
2023-03-05T09:53:36.106Z,13.15
2023-03-05T09:56:13.619Z,11.00
2023-03-05T09:58:48.345Z,10.10
2023-03-05T10:01:32.192Z,6.22
2023-03-05T10:05:13.103Z,5.85
2023-03-05T10:07:52.421Z,6.72
2023-03-05T10:10:55.411Z,6.03
2023-03-05T10:13:25.443Z,5.93
2023-03-05T10:16:01.621Z,6.07
2023-03-05T10:18:35.534Z,6.97
2023-03-05T10:21:41.009Z,8.10
2023-03-05T10:24:48.685Z,9.48
2023-03-05T10:27:30.438Z,7.28
2023-03-05T10:30:20.062Z,7.53
2023-03-05T10:33:06.342Z,8.02
2023-03-05T10:36:11.456Z,6.30
2023-03-05T10:39:12.513Z,6.38
2023-03-05T10:41:50.579Z,5.25
2023-03-05T10:44:45.291Z,5.55
2023-03-05T10:47:26.545Z,4.22
2023-03-05T10:49:58.740Z,3.53
2023-03-05T10:52:33.286Z,3.80
2023-03-05T10:55:01.285Z,3.45
2023-03-05T10:57:37.634Z,4.38
2023-03-05T11:00:05.690Z,3.88
2023-03-05T11:02:35.618Z,3.72
2023-03-05T11:05:05.158Z,4.07
2023-03-05T11:07:35.138Z,4.20
2023-03-05T11:10:29.637Z,4.05
2023-03-05T11:12:59.118Z,4.32
2023-03-05T11:15:29.566Z,3.90
2023-03-05T11:18:31.508Z,3.58
2023-03-05T11:21:11.565Z,4.05
2023-03-05T11:23:38.906Z,3.53
2023-03-05T11:26:17.855Z,3.60
2023-03-05T11:29:14.339Z,2.72
2023-03-05T11:31:42.476Z,3.13
2023-03-05T11:34:18.705Z,3.17
2023-03-05T11:36:54.587Z,3.08
2023-03-05T11:39:23.529Z,2.67
2023-03-05T11:42:19.521Z,2.65
2023-03-05T11:44:59.044Z,2.92
2023-03-05T11:47:50.641Z,2.97
2023-03-05T11:50:24.246Z,2.22
2023-03-05T11:53:02.476Z,2.10
2023-03-05T11:55:56.115Z,2.22
2023-03-05T11:58:46.384Z,1.90
2023-03-05T12:01:19.290Z,2.38
2023-03-05T12:03:48.109Z,2.90
2023-03-05T12:06:24.677Z,3.08
2023-03-05T12:08:57.622Z,3.03
2023-03-05T12:11:33.312Z,3.53
2023-03-05T12:14:08.116Z,51.72
2023-03-05T12:16:43.794Z,8.93
2023-03-05T12:19:52.380Z,4.70
2023-03-05T12:25:46.860Z,6.75
2023-03-05T12:28:41.883Z,6.82
2023-03-05T12:31:39.604Z,7.20
2023-03-05T12:37:39.244Z,6.57
2023-03-05T12:40:15.846Z,7.63
2023-03-05T12:43:02.219Z,7.63
2023-03-05T12:45:37.911Z,9.02
2023-03-05T12:48:10.814Z,8.18
2023-03-05T12:50:40.985Z,8.13
2023-03-05T12:56:25.502Z,7.90
2023-03-05T12:58:57.837Z,8.85
2023-03-05T13:02:03.056Z,6.97
2023-03-05T13:04:33.427Z,7.30
2023-03-05T13:07:06.550Z,8.68
2023-03-05T13:09:38.698Z,7.30
2023-03-05T13:12:14.276Z,7.32
2023-03-05T13:14:43.712Z,7.53
2023-03-05T13:17:35.699Z,7.75
2023-03-05T13:20:24.328Z,5.95
2023-03-05T13:23:20.719Z,2.67
2023-03-05T13:26:15.802Z,2.13
2023-03-05T13:29:04.216Z,3.15
2023-03-05T13:31:35.211Z,2.80
2023-03-05T13:34:11.487Z,4.95
2023-03-05T13:36:40.053Z,3.25
2023-03-05T13:39:07.710Z,2.70
2023-03-05T13:41:36.906Z,2.40
2023-03-05T13:44:31.348Z,2.10
2023-03-05T13:47:18.940Z,2.00
2023-03-05T13:49:49.779Z,1.88
2023-03-05T13:52:37.555Z,1.45
2023-03-05T13:55:16.989Z,2.20
2023-03-05T13:57:55.768Z,1.60
2023-03-05T14:00:34.494Z,1.42
2023-03-05T14:03:21.279Z,10.00
2023-03-05T14:05:50.136Z,15.43
2023-03-05T14:08:23.856Z,1.70
2023-03-05T14:10:51.946Z,1.15
2023-03-05T14:13:29.232Z,1.65
2023-03-05T14:16:26.072Z,1.70
2023-03-05T14:18:57.507Z,1.63
2023-03-05T14:21:26.082Z,1.75
2023-03-05T14:23:55.139Z,1.90
2023-03-05T14:26:44.157Z,2.22
2023-03-05T14:29:11.152Z,2.05
2023-03-05T14:31:56.804Z,1.50
2023-03-05T14:34:31.899Z,1.23
2023-03-05T14:37:08.277Z,1.38
2023-03-05T14:39:50.031Z,2.00
2023-03-05T14:42:27.003Z,2.67
2023-03-05T14:44:57.619Z,1.20
2023-03-05T14:47:25.677Z,0.82
2023-03-05T14:49:54.919Z,1.25
2023-03-05T14:52:24.410Z,1.10
2023-03-05T14:54:53.951Z,1.15
2023-03-05T14:57:25.141Z,1.10
2023-03-05T14:59:52.296Z,1.10
2023-03-05T15:02:21.973Z,1.10
2023-03-05T15:04:49.283Z,1.20
2023-03-05T15:07:17.753Z,1.20
2023-03-05T15:09:45.100Z,1.40
2023-03-05T15:12:13.843Z,1.40
2023-03-05T15:14:44.872Z,1.63
2023-03-05T15:17:25.960Z,1.60
2023-03-05T15:19:53.922Z,1.60
2023-03-05T15:22:22.310Z,1.45
2023-03-05T15:24:50.442Z,1.75
2023-03-05T15:27:18.124Z,2.95
2023-03-05T15:29:45.167Z,2.10
2023-03-05T15:32:12.312Z,2.22
2023-03-05T15:34:43.867Z,1.75
2023-03-05T15:37:11.398Z,2.00
2023-03-05T15:39:45.691Z,2.20
2023-03-05T15:42:12.673Z,1.90
2023-03-05T15:44:40.156Z,2.78
2023-03-05T15:47:07.272Z,6.20
2023-03-05T15:49:34.351Z,4.15
2023-03-05T15:52:01.393Z,5.05
2023-03-05T15:54:30.103Z,7.85
2023-03-05T15:57:09.447Z,7.85
2023-03-05T16:00:29.599Z,3.13
2023-03-05T16:02:57.793Z,5.13
2023-03-05T16:05:26.182Z,3.35
2023-03-05T16:07:54.560Z,2.72
2023-03-05T16:10:25.414Z,2.50
2023-03-05T16:13:19.249Z,2.50
2023-03-05T16:15:55.464Z,3.40
2023-03-05T16:18:27.440Z,2.63
2023-03-05T16:20:55.476Z,2.40
2023-03-05T16:23:23.951Z,2.50
2023-03-05T16:25:51.014Z,4.30
2023-03-05T16:28:20.712Z,2.95
2023-03-05T16:30:54.191Z,2.80
2023-03-05T16:33:21.662Z,3.00
2023-03-05T16:35:57.402Z,2.85
2023-03-05T16:38:26.091Z,3.30
2023-03-05T16:41:07.282Z,2.80
2023-03-05T16:43:36.563Z,3.58
2023-03-05T16:46:03.521Z,3.00
2023-03-05T16:48:30.611Z,3.45
2023-03-05T16:50:59.250Z,3.75
2023-03-05T16:53:26.386Z,3.70
2023-03-05T16:55:53.447Z,4.18
2023-03-05T16:58:20.463Z,4.20
2023-03-05T17:00:48.916Z,4.90
2023-03-05T17:03:15.923Z,5.57
2023-03-05T17:05:43.082Z,6.13
2023-03-05T17:08:12.020Z,6.60
2023-03-05T17:10:39.045Z,6.75
2023-03-05T17:13:06.310Z,5.95
2023-03-05T17:15:34.107Z,5.85
2023-03-05T17:18:02.715Z,6.03
2023-03-05T17:20:30.431Z,5.57
2023-03-05T17:23:02.177Z,6.07
2023-03-05T17:25:29.325Z,6.07
2023-03-05T17:27:56.322Z,5.57
2023-03-05T17:30:23.464Z,7.03
2023-03-05T17:32:53.473Z,6.80
2023-03-05T17:35:22.283Z,6.22
2023-03-05T17:37:50.199Z,7.45
2023-03-05T17:40:17.969Z,7.43
2023-03-05T17:42:44.885Z,7.07
2023-03-05T17:45:12.593Z,7.50
2023-03-05T17:47:39.825Z,7.20
2023-03-05T17:50:10.562Z,7.65
2023-03-05T17:52:39.433Z,7.85
2023-03-05T17:55:10.129Z,7.50
2023-03-05T17:57:41.515Z,7.32
2023-03-05T18:00:30.979Z,7.60
2023-03-05T18:03:02.168Z,7.97
2023-03-05T18:05:29.415Z,8.40
2023-03-05T18:07:57.220Z,7.40
2023-03-05T18:10:26.204Z,7.88
2023-03-05T18:12:53.946Z,9.27
2023-03-05T18:15:22.926Z,8.85
2023-03-05T18:17:50.419Z,8.23
2023-03-05T18:20:34.085Z,8.00
2023-03-05T18:23:02.147Z,8.20
2023-03-05T18:25:34.696Z,8.52
2023-03-05T18:30:35.884Z,7.40
2023-03-05T18:33:05.674Z,8.10
2023-03-05T18:35:33.664Z,8.43
2023-03-05T18:38:01.077Z,9.95
2023-03-05T18:40:32.738Z,11.73
2023-03-05T18:43:01.046Z,7.85
2023-03-05T18:45:29.367Z,8.00
2023-03-05T18:47:56.771Z,8.55
2023-03-05T18:50:26.220Z,8.52
2023-03-05T18:52:53.933Z,9.38
2023-03-05T18:55:25.477Z,8.25
2023-03-05T18:57:53.023Z,9.75
2023-03-05T19:00:23.185Z,10.02
2023-03-05T19:02:50.189Z,11.23
2023-03-05T19:05:17.971Z,13.43
2023-03-05T19:07:45.788Z,12.50
2023-03-05T19:10:16.671Z,11.68
2023-03-05T19:13:05.744Z,10.80
2023-03-05T19:15:33.123Z,9.93
2023-03-05T19:18:05.154Z,11.85
2023-03-05T19:20:37.619Z,10.75
2023-03-05T19:23:09.082Z,11.88
2023-03-05T19:25:37.107Z,12.27
2023-03-05T19:28:04.654Z,11.18
2023-03-05T19:30:31.836Z,10.57
2023-03-05T19:32:58.809Z,9.35
2023-03-05T19:35:28.430Z,10.07
2023-03-05T19:37:56.703Z,11.05
2023-03-05T19:40:24.317Z,10.90
2023-03-05T19:42:54.402Z,10.77
2023-03-05T19:45:22.469Z,11.20
2023-03-05T19:47:50.809Z,11.50
2023-03-05T19:50:17.978Z,11.43
2023-03-05T19:52:48.098Z,11.60
2023-03-05T19:55:22.586Z,11.32
2023-03-05T19:58:00.959Z,11.35
2023-03-05T20:00:29.457Z,11.30
2023-03-05T20:02:59.206Z,9.95
2023-03-05T20:05:30.726Z,11.57
2023-03-05T20:08:03.963Z,11.98
2023-03-05T20:10:39.152Z,12.02
2023-03-05T20:13:10.429Z,12.38
2023-03-05T20:19:08.260Z,12.13
2023-03-05T20:21:41.011Z,12.38
2023-03-05T20:24:13.536Z,13.38
2023-03-05T20:26:44.003Z,11.95
2023-03-05T20:29:18.702Z,12.50
2023-03-05T20:31:48.165Z,13.43
2023-03-05T20:34:18.119Z,13.57
2023-03-05T20:36:45.948Z,15.63
2023-03-05T20:39:32.362Z,15.75
2023-03-05T20:42:03.112Z,15.40
2023-03-05T20:44:30.447Z,16.15
2023-03-05T20:47:14.926Z,16.13
2023-03-05T20:49:43.085Z,17.02
2023-03-05T20:52:10.351Z,16.58
2023-03-05T20:54:37.320Z,18.77
2023-03-05T20:57:04.780Z,19.08
2023-03-05T20:59:31.869Z,18.95
2023-03-05T21:01:59.483Z,20.08
2023-03-05T21:04:27.512Z,19.58
2023-03-05T21:06:54.550Z,19.67
2023-03-05T21:09:22.375Z,21.17
2023-03-05T21:11:50.495Z,21.08
2023-03-05T21:14:17.784Z,22.08
2023-03-05T21:16:45.985Z,22.15
2023-03-05T21:19:13.347Z,22.30
2023-03-05T21:21:45.545Z,22.98
2023-03-05T21:24:13.162Z,23.13
2023-03-05T21:26:40.266Z,22.48
2023-03-05T21:29:07.267Z,24.63
2023-03-05T21:31:37.414Z,24.90
2023-03-05T21:34:05.523Z,24.30
2023-03-05T21:36:32.552Z,24.67
2023-03-05T21:39:00.757Z,26.15
2023-03-05T21:41:28.116Z,25.60
2023-03-05T21:43:55.152Z,25.58
2023-03-05T21:46:24.804Z,25.65
2023-03-05T21:48:52.260Z,25.77
2023-03-05T21:51:21.807Z,24.70
2023-03-05T21:53:51.090Z,24.75
2023-03-05T21:56:25.949Z,25.17
2023-03-05T21:58:57.152Z,25.58
2023-03-05T22:01:28.024Z,26.08
2023-03-05T22:04:13.906Z,25.90
2023-03-05T22:06:42.094Z,23.83
2023-03-05T22:09:12.590Z,25.35
2023-03-05T22:11:42.812Z,25.35
2023-03-05T22:14:11.245Z,25.70
2023-03-05T22:16:38.660Z,26.50
2023-03-05T22:19:06.273Z,26.60
2023-03-05T22:21:34.713Z,27.50
2023-03-05T22:24:06.017Z,26.70
2023-03-05T22:26:38.782Z,25.83
2023-03-05T22:29:11.971Z,27.48
2023-03-05T22:31:40.693Z,27.00
2023-03-05T22:34:07.936Z,28.05
2023-03-05T22:36:35.297Z,25.73
2023-03-05T22:39:03.929Z,27.58
2023-03-05T22:41:30.916Z,25.13
2023-03-05T22:43:57.806Z,26.05
2023-03-05T22:46:26.495Z,26.90
2023-03-05T22:48:54.032Z,26.75
2023-03-05T22:51:22.187Z,25.55
2023-03-05T22:53:50.363Z,27.25
2023-03-05T22:56:20.049Z,26.27
2023-03-05T22:58:47.403Z,28.50
2023-03-05T23:01:19.463Z,26.75
2023-03-05T23:03:53.288Z,20.00
2023-03-05T23:06:22.431Z,27.15
2023-03-05T23:08:52.046Z,27.30
2023-03-05T23:11:19.368Z,26.95
2023-03-05T23:13:46.475Z,28.15
2023-03-05T23:16:14.824Z,28.65
2023-03-05T23:18:42.199Z,28.73
2023-03-05T23:21:10.247Z,28.55
2023-03-05T23:23:38.222Z,27.75
2023-03-05T23:26:08.142Z,27.75
2023-03-05T23:28:35.291Z,27.10
2023-03-05T23:31:04.071Z,28.23
2023-03-05T23:33:32.243Z,29.25
2023-03-05T23:36:02.572Z,27.60
2023-03-05T23:38:39.674Z,29.40
2023-03-05T23:41:09.625Z,28.90
2023-03-05T23:43:36.865Z,28.58
2023-03-05T23:46:11.613Z,27.90
2023-03-05T23:48:42.175Z,29.42
2023-03-05T23:51:10.583Z,27.77
2023-03-05T23:53:38.629Z,30.45
2023-03-05T23:56:12.403Z,29.30
2023-03-05T23:58:39.656Z,29.70
